createdAt,value
2022-10-31T00:01:25.521Z,8.85
2022-10-31T00:03:52.863Z,8.83
2022-10-31T00:06:19.810Z,8.80
2022-10-31T00:08:47.453Z,8.95
2022-10-31T00:11:14.474Z,9.04
2022-10-31T00:13:40.996Z,9.08
2022-10-31T00:16:17.504Z,8.86
2022-10-31T00:18:44.281Z,8.68
2022-10-31T00:21:10.812Z,8.87
2022-10-31T00:23:37.394Z,9.14
2022-10-31T00:26:05.197Z,9.24
2022-10-31T00:28:32.951Z,9.03
2022-10-31T00:31:04.401Z,9.09
2022-10-31T00:33:31.163Z,9.17
2022-10-31T00:35:57.871Z,8.94
2022-10-31T00:38:24.539Z,8.77
2022-10-31T00:40:51.126Z,8.62
2022-10-31T00:43:17.678Z,8.78
2022-10-31T00:45:44.705Z,8.71
2022-10-31T00:48:11.394Z,8.82
2022-10-31T00:50:38.570Z,8.90
2022-10-31T00:53:05.704Z,8.95
2022-10-31T00:55:32.594Z,8.96
2022-10-31T00:57:59.509Z,8.95
2022-10-31T01:00:26.627Z,8.72
2022-10-31T01:02:53.250Z,8.71
2022-10-31T01:05:20.041Z,8.62
2022-10-31T01:07:47.118Z,8.66
2022-10-31T01:10:13.812Z,8.71
2022-10-31T01:12:45.963Z,8.77
2022-10-31T01:15:17.135Z,8.62
2022-10-31T01:17:43.751Z,8.49
2022-10-31T01:20:13.656Z,8.60
2022-10-31T01:22:40.279Z,8.57
2022-10-31T01:25:08.474Z,8.51
2022-10-31T01:27:35.365Z,8.52
2022-10-31T01:30:01.920Z,8.39
2022-10-31T01:32:29.876Z,8.57
2022-10-31T01:34:56.568Z,8.73
2022-10-31T01:37:23.145Z,8.79
2022-10-31T01:39:50.121Z,8.50
2022-10-31T01:42:20.775Z,8.59
2022-10-31T01:44:58.824Z,8.71
2022-10-31T01:47:34.881Z,8.66
2022-10-31T01:50:06.700Z,8.69
2022-10-31T01:52:41.482Z,8.51
2022-10-31T01:55:19.224Z,8.35
2022-10-31T01:57:50.972Z,8.32
2022-10-31T02:00:18.109Z,8.27
2022-10-31T02:02:46.998Z,8.19
2022-10-31T02:05:22.312Z,8.20
2022-10-31T02:07:54.885Z,8.49
2022-10-31T02:10:28.234Z,8.58
2022-10-31T02:12:58.034Z,8.61
2022-10-31T02:15:25.290Z,8.65
2022-10-31T02:17:52.692Z,8.75
2022-10-31T02:20:23.536Z,8.56
2022-10-31T02:23:02.325Z,8.46
2022-10-31T02:25:51.078Z,8.68
2022-10-31T02:28:49.384Z,8.46
2022-10-31T02:31:38.877Z,8.57
2022-10-31T02:34:23.804Z,8.73
2022-10-31T02:36:56.232Z,8.76
2022-10-31T02:39:25.113Z,8.80
2022-10-31T02:42:11.863Z,8.92
2022-10-31T02:45:01.756Z,9.03
2022-10-31T02:47:30.592Z,9.00
2022-10-31T02:50:06.695Z,9.00
2022-10-31T02:52:35.477Z,8.84
2022-10-31T02:55:35.662Z,8.81
2022-10-31T02:58:11.984Z,8.60
2022-10-31T03:01:00.936Z,8.63
2022-10-31T03:03:41.876Z,8.75
2022-10-31T03:06:21.462Z,8.87
2022-10-31T03:09:16.163Z,8.83
2022-10-31T03:11:55.456Z,8.49
2022-10-31T03:14:31.191Z,8.60
2022-10-31T03:17:05.015Z,8.65
2022-10-31T03:19:37.036Z,8.53
2022-10-31T03:22:11.298Z,8.58
2022-10-31T03:24:40.351Z,8.47
2022-10-31T03:27:10.670Z,8.42
2022-10-31T03:29:40.336Z,8.65
2022-10-31T03:32:35.550Z,8.38
2022-10-31T03:35:08.173Z,8.56
2022-10-31T03:37:36.585Z,8.70
2022-10-31T03:40:06.026Z,8.42
2022-10-31T03:42:38.412Z,8.30
2022-10-31T03:45:15.489Z,8.36
2022-10-31T03:47:44.581Z,8.23
2022-10-31T03:50:15.096Z,8.31
2022-10-31T03:52:55.768Z,8.21
2022-10-31T03:55:32.867Z,8.44
2022-10-31T03:58:28.566Z,8.24
2022-10-31T04:00:58.461Z,8.35
2022-10-31T04:03:31.038Z,8.27
2022-10-31T04:06:06.495Z,8.05
2022-10-31T04:08:41.553Z,7.92
2022-10-31T04:11:12.690Z,7.86
2022-10-31T04:13:45.248Z,8.04
2022-10-31T04:16:17.531Z,8.20
2022-10-31T04:18:45.081Z,8.25
2022-10-31T04:21:11.685Z,8.09
2022-10-31T04:23:38.271Z,8.23
2022-10-31T04:26:14.212Z,8.20
2022-10-31T04:28:43.684Z,8.20
2022-10-31T04:31:13.046Z,8.21
2022-10-31T04:33:40.088Z,8.18
2022-10-31T04:36:07.313Z,8.08
2022-10-31T04:38:34.214Z,7.88
2022-10-31T04:41:03.640Z,7.92
2022-10-31T04:43:33.237Z,7.77
2022-10-31T04:46:01.125Z,7.81
2022-10-31T04:48:28.289Z,7.70
2022-10-31T04:51:02.526Z,7.74
2022-10-31T04:53:29.871Z,7.83
2022-10-31T04:56:16.688Z,7.85
2022-10-31T04:58:46.741Z,7.65
2022-10-31T05:01:13.815Z,7.93
2022-10-31T05:03:40.586Z,7.99
2022-10-31T05:06:07.998Z,7.76
2022-10-31T05:08:35.395Z,7.69
2022-10-31T05:11:05.651Z,7.63
2022-10-31T05:13:33.759Z,7.91
2022-10-31T05:16:12.488Z,8.07
2022-10-31T05:19:08.443Z,8.10
2022-10-31T05:21:53.588Z,7.86
2022-10-31T05:24:22.685Z,7.77
2022-10-31T05:26:50.210Z,7.92
2022-10-31T05:29:17.620Z,7.84
2022-10-31T05:31:44.215Z,7.69
2022-10-31T05:34:23.794Z,7.87
2022-10-31T05:37:13.971Z,7.69
2022-10-31T05:39:41.995Z,7.80
2022-10-31T05:42:14.319Z,7.74
2022-10-31T05:44:41.819Z,7.77
2022-10-31T05:47:31.308Z,7.72
2022-10-31T05:50:33.491Z,7.77
2022-10-31T05:53:08.921Z,7.64
2022-10-31T05:55:37.729Z,7.61
2022-10-31T05:58:11.011Z,7.61
2022-10-31T06:00:39.769Z,7.77
2022-10-31T06:03:10.609Z,7.88
2022-10-31T06:05:50.839Z,7.76
2022-10-31T06:08:21.438Z,7.69
2022-10-31T06:10:49.169Z,7.69
2022-10-31T06:13:21.098Z,7.72
2022-10-31T06:16:00.106Z,7.72
2022-10-31T06:18:34.115Z,7.72
2022-10-31T06:21:01.053Z,7.92
2022-10-31T06:23:28.695Z,8.04
2022-10-31T06:26:15.176Z,8.12
2022-10-31T06:28:41.929Z,7.87
2022-10-31T06:31:26.879Z,7.84
2022-10-31T06:33:53.475Z,7.82
2022-10-31T06:36:20.154Z,8.10
2022-10-31T06:38:47.371Z,8.20
2022-10-31T06:41:17.205Z,8.09
2022-10-31T06:43:48.240Z,8.01
2022-10-31T06:46:43.522Z,8.10
2022-10-31T06:49:28.643Z,8.26
2022-10-31T06:51:59.598Z,8.29
2022-10-31T06:54:26.596Z,8.40
2022-10-31T06:56:54.253Z,8.76
2022-10-31T06:59:21.566Z,8.79
2022-10-31T07:02:11.686Z,8.97
2022-10-31T07:04:39.946Z,9.01
2022-10-31T07:07:07.258Z,8.89
2022-10-31T07:09:35.810Z,9.02
2022-10-31T07:12:04.302Z,8.88
2022-10-31T07:14:33.073Z,9.11
2022-10-31T07:17:00.773Z,9.27
2022-10-31T07:19:33.508Z,9.55
2022-10-31T07:22:00.185Z,9.62
2022-10-31T07:24:28.886Z,9.80
2022-10-31T07:27:15.348Z,9.94
2022-10-31T07:29:43.454Z,9.96
2022-10-31T07:32:10.043Z,9.73
2022-10-31T07:34:44.940Z,9.74
2022-10-31T07:37:22.519Z,10.29
2022-10-31T07:39:49.056Z,10.61
2022-10-31T07:42:16.280Z,10.69
2022-10-31T07:44:45.239Z,10.62
2022-10-31T07:47:30.181Z,10.66
2022-10-31T07:50:18.504Z,10.71
2022-10-31T07:53:12.312Z,10.24
2022-10-31T07:55:39.662Z,10.37
2022-10-31T07:58:10.640Z,10.43
2022-10-31T08:00:44.968Z,10.61
2022-10-31T08:03:17.292Z,10.76
2022-10-31T08:06:02.724Z,10.73
2022-10-31T08:08:32.295Z,10.77
2022-10-31T08:11:02.134Z,10.89
2022-10-31T08:13:30.308Z,10.86
2022-10-31T08:16:04.245Z,11.27
2022-10-31T08:18:32.844Z,11.38
2022-10-31T08:20:59.798Z,11.56
2022-10-31T08:23:26.346Z,11.65
2022-10-31T08:25:55.895Z,11.33
2022-10-31T08:28:23.530Z,11.60
2022-10-31T08:30:51.761Z,11.46
2022-10-31T08:33:38.543Z,11.34
2022-10-31T08:36:23.852Z,11.91
2022-10-31T08:39:01.481Z,11.99
2022-10-31T08:41:30.501Z,11.98
2022-10-31T08:43:58.695Z,11.95
2022-10-31T08:46:25.437Z,12.15
2022-10-31T08:48:52.731Z,12.46
2022-10-31T08:51:21.861Z,12.85
2022-10-31T08:53:53.189Z,12.46
2022-10-31T08:56:39.811Z,12.75
2022-10-31T08:59:24.112Z,13.05
2022-10-31T09:02:23.275Z,13.03
2022-10-31T09:04:52.851Z,12.92
2022-10-31T09:07:20.909Z,13.11
2022-10-31T09:09:48.075Z,13.06
2022-10-31T09:12:14.703Z,13.59
2022-10-31T09:14:56.256Z,13.86
2022-10-31T09:17:31.474Z,13.71
2022-10-31T09:20:16.835Z,14.19
2022-10-31T09:22:43.351Z,14.36
2022-10-31T09:25:10.212Z,14.12
2022-10-31T09:27:38.251Z,13.99
2022-10-31T09:30:07.414Z,14.01
2022-10-31T09:32:34.540Z,14.37
2022-10-31T09:35:01.300Z,14.46
2022-10-31T09:37:28.251Z,14.86
2022-10-31T09:39:54.878Z,15.11
2022-10-31T09:42:53.766Z,15.34
2022-10-31T09:45:27.504Z,15.36
2022-10-31T09:48:15.954Z,15.57
2022-10-31T09:51:16.062Z,15.68
2022-10-31T09:54:31.127Z,15.78
2022-10-31T09:57:01.143Z,16.25
2022-10-31T09:59:34.478Z,16.37
2022-10-31T10:02:14.689Z,16.34
2022-10-31T10:04:52.158Z,16.57
2022-10-31T10:08:22.335Z,16.99
2022-10-31T10:11:25.942Z,16.76
2022-10-31T10:14:19.382Z,16.92
2022-10-31T10:17:07.149Z,17.21
2022-10-31T10:20:09.276Z,17.05
2022-10-31T10:23:24.037Z,17.41
2022-10-31T10:26:06.092Z,17.78
2022-10-31T10:28:39.672Z,17.61
2022-10-31T10:31:15.513Z,17.52
2022-10-31T10:33:56.953Z,17.93
2022-10-31T10:39:47.928Z,17.69
2022-10-31T10:42:35.121Z,17.75
2022-10-31T10:45:33.470Z,18.13
2022-10-31T10:48:10.727Z,18.00
2022-10-31T10:50:42.995Z,17.90
2022-10-31T10:53:22.195Z,18.05
2022-10-31T10:55:58.354Z,18.42
2022-10-31T10:58:24.977Z,18.37
2022-10-31T11:00:54.372Z,18.34
2022-10-31T11:03:20.962Z,18.26
2022-10-31T11:05:53.267Z,18.31
2022-10-31T11:08:36.770Z,18.31
2022-10-31T11:11:18.318Z,18.70
2022-10-31T11:13:48.209Z,19.14
2022-10-31T11:16:28.914Z,19.11
2022-10-31T11:19:08.775Z,19.57
2022-10-31T11:21:35.720Z,19.67
2022-10-31T11:24:23.121Z,19.69
2022-10-31T11:26:51.749Z,19.24
2022-10-31T11:29:25.701Z,19.28
2022-10-31T11:31:57.744Z,19.06
2022-10-31T11:34:30.932Z,19.09
2022-10-31T11:37:10.393Z,18.98
2022-10-31T11:39:43.412Z,18.60
2022-10-31T11:42:09.976Z,19.11
2022-10-31T11:44:36.921Z,19.04
2022-10-31T11:47:12.953Z,18.78
2022-10-31T11:49:42.078Z,18.81
2022-10-31T11:52:16.112Z,18.68
2022-10-31T11:54:45.999Z,18.98
2022-10-31T11:57:45.350Z,19.02
2022-10-31T12:03:13.188Z,18.59
2022-10-31T12:05:42.342Z,18.34
2022-10-31T12:08:13.017Z,18.12
2022-10-31T12:11:12.258Z,18.09
2022-10-31T12:14:03.715Z,18.26
2022-10-31T12:16:54.262Z,17.90
2022-10-31T12:19:20.804Z,17.81
2022-10-31T12:22:16.100Z,17.83
2022-10-31T12:25:14.018Z,17.76
2022-10-31T12:28:03.943Z,17.74
2022-10-31T12:30:39.598Z,18.01
2022-10-31T12:33:24.198Z,17.98
2022-10-31T12:36:12.488Z,17.94
2022-10-31T12:38:56.912Z,17.90
2022-10-31T12:42:01.919Z,18.01
2022-10-31T12:44:52.068Z,17.62
2022-10-31T12:47:33.601Z,18.04
2022-10-31T12:50:12.818Z,17.88
2022-10-31T12:52:42.228Z,17.85
2022-10-31T12:55:27.491Z,17.87
2022-10-31T12:58:04.302Z,17.86
2022-10-31T13:00:34.922Z,17.69
2022-10-31T13:03:24.518Z,17.52
2022-10-31T13:05:58.224Z,17.51
2022-10-31T13:08:36.107Z,17.67
2022-10-31T13:14:57.330Z,18.15
2022-10-31T13:18:13.717Z,18.07
2022-10-31T13:20:44.379Z,18.35
2022-10-31T13:23:49.900Z,18.56
2022-10-31T13:26:21.304Z,18.31
2022-10-31T13:29:40.664Z,18.36
2022-10-31T13:32:08.208Z,18.21
2022-10-31T13:34:40.507Z,18.06
2022-10-31T13:37:37.657Z,17.75
2022-10-31T13:40:10.490Z,17.41
2022-10-31T13:43:06.013Z,17.29
2022-10-31T13:45:32.692Z,17.22
2022-10-31T13:48:02.288Z,17.27
2022-10-31T13:50:32.501Z,17.08
2022-10-31T13:53:37.296Z,17.24
2022-10-31T13:56:25.503Z,17.26
2022-10-31T13:59:20.514Z,17.03
2022-10-31T14:01:50.189Z,17.09
2022-10-31T14:04:25.194Z,16.99
2022-10-31T14:06:58.259Z,17.05
2022-10-31T14:09:29.290Z,17.04
2022-10-31T14:11:57.156Z,16.56
2022-10-31T14:14:32.040Z,16.76
2022-10-31T14:16:59.149Z,16.70
2022-10-31T14:19:27.706Z,16.45
2022-10-31T14:21:54.214Z,16.44
2022-10-31T14:24:23.349Z,16.32
2022-10-31T14:27:26.249Z,16.53
2022-10-31T14:29:52.850Z,16.39
2022-10-31T14:32:27.333Z,16.32
2022-10-31T14:34:58.789Z,16.34
2022-10-31T14:37:28.259Z,16.34
2022-10-31T14:40:20.710Z,16.65
2022-10-31T14:43:05.995Z,16.70
2022-10-31T14:46:03.722Z,16.68
2022-10-31T14:48:44.828Z,16.71
2022-10-31T14:51:22.119Z,16.87
2022-10-31T14:53:50.371Z,17.02
2022-10-31T14:56:30.189Z,16.98
2022-10-31T14:59:02.073Z,17.13
2022-10-31T15:01:37.917Z,17.56
2022-10-31T15:04:23.506Z,17.24
2022-10-31T15:06:58.803Z,17.26
2022-10-31T15:09:32.858Z,17.17
2022-10-31T15:12:01.127Z,17.02
2022-10-31T15:14:30.469Z,17.06
2022-10-31T15:16:59.545Z,16.90
2022-10-31T15:19:29.506Z,16.43
2022-10-31T15:21:58.580Z,16.33
2022-10-31T15:24:36.544Z,16.21
2022-10-31T15:27:05.273Z,16.19
2022-10-31T15:29:32.883Z,16.15
2022-10-31T15:32:19.514Z,15.89
2022-10-31T15:34:45.968Z,15.76
2022-10-31T15:37:17.364Z,15.54
2022-10-31T15:39:45.153Z,15.42
2022-10-31T15:42:25.136Z,15.35
2022-10-31T15:45:15.632Z,15.20
2022-10-31T15:47:55.761Z,15.07
2022-10-31T15:50:41.546Z,14.92
2022-10-31T15:53:19.423Z,14.61
2022-10-31T15:55:51.722Z,14.59
2022-10-31T15:58:18.911Z,14.54
2022-10-31T16:00:45.773Z,14.32
2022-10-31T16:03:15.458Z,14.18
2022-10-31T16:05:50.030Z,14.06
2022-10-31T16:08:25.283Z,14.06
2022-10-31T16:10:52.655Z,13.97
2022-10-31T16:13:25.139Z,13.81
2022-10-31T16:16:21.381Z,13.70
2022-10-31T16:18:45.784Z,13.52
2022-10-31T16:21:13.401Z,13.53
2022-10-31T16:23:46.785Z,13.54
2022-10-31T16:26:19.284Z,13.20
2022-10-31T16:29:24.297Z,12.97
2022-10-31T16:31:50.763Z,12.96
2022-10-31T16:34:26.920Z,13.06
2022-10-31T16:36:54.152Z,12.98
2022-10-31T16:39:21.075Z,12.92
2022-10-31T16:41:51.323Z,12.79
2022-10-31T16:44:26.475Z,12.78
2022-10-31T16:47:25.977Z,12.63
2022-10-31T16:49:54.942Z,12.58
2022-10-31T16:52:21.383Z,12.62
2022-10-31T16:54:47.856Z,12.79
2022-10-31T16:57:18.205Z,12.76
2022-10-31T16:59:49.289Z,12.95
2022-10-31T17:02:17.569Z,12.97
2022-10-31T17:04:44.864Z,12.84
2022-10-31T17:07:11.429Z,12.80
2022-10-31T17:09:37.951Z,12.76
2022-10-31T17:12:06.320Z,12.78
2022-10-31T17:14:34.217Z,12.74
2022-10-31T17:17:00.741Z,12.61
2022-10-31T17:19:27.256Z,12.39
2022-10-31T17:21:53.838Z,12.43
2022-10-31T17:24:20.308Z,12.40
2022-10-31T17:26:47.196Z,12.45
2022-10-31T17:29:13.750Z,12.36
2022-10-31T17:31:40.253Z,12.48
2022-10-31T17:34:07.233Z,12.58
2022-10-31T17:36:34.774Z,12.72
2022-10-31T17:39:01.377Z,12.69
2022-10-31T17:41:27.896Z,12.51
2022-10-31T17:43:56.027Z,12.18
2022-10-31T17:46:22.895Z,11.98
2022-10-31T17:48:49.911Z,11.88
2022-10-31T17:51:16.611Z,11.89
2022-10-31T17:53:43.133Z,11.95
2022-10-31T17:56:10.694Z,11.85
2022-10-31T17:58:38.062Z,11.88
2022-10-31T18:01:10.661Z,11.74
2022-10-31T18:03:37.767Z,11.52
2022-10-31T18:06:04.604Z,11.54
2022-10-31T18:08:33.426Z,11.59
2022-10-31T18:11:00.673Z,11.51
2022-10-31T18:13:28.271Z,11.53
2022-10-31T18:15:54.959Z,11.58
2022-10-31T18:18:22.052Z,11.67
2022-10-31T18:20:48.692Z,11.76
2022-10-31T18:23:15.170Z,11.65
2022-10-31T18:25:43.402Z,11.29
2022-10-31T18:28:10.548Z,11.02
2022-10-31T18:30:41.184Z,11.07
2022-10-31T18:33:08.853Z,10.93
2022-10-31T18:35:39.826Z,10.82
2022-10-31T18:38:07.253Z,10.87
2022-10-31T18:40:35.731Z,10.96
2022-10-31T18:43:02.933Z,10.62
2022-10-31T18:45:45.347Z,10.69
2022-10-31T18:48:14.812Z,10.57
2022-10-31T18:50:41.853Z,10.57
2022-10-31T18:53:08.462Z,10.45
2022-10-31T18:55:39.397Z,10.50
2022-10-31T18:58:06.400Z,10.55
2022-10-31T19:00:32.853Z,10.38
2022-10-31T19:02:59.590Z,10.29
2022-10-31T19:05:26.353Z,10.24
2022-10-31T19:07:52.834Z,10.17
2022-10-31T19:10:19.327Z,10.11
2022-10-31T19:12:45.750Z,10.04
2022-10-31T19:15:12.366Z,9.96
2022-10-31T19:17:38.852Z,9.96
2022-10-31T19:20:05.816Z,9.93
2022-10-31T19:22:32.305Z,9.87
2022-10-31T19:24:58.772Z,10.16
2022-10-31T19:27:27.974Z,10.10
2022-10-31T19:29:54.538Z,10.20
2022-10-31T19:32:21.111Z,9.94
2022-10-31T19:34:47.567Z,9.96
2022-10-31T19:37:14.347Z,10.06
2022-10-31T19:39:44.131Z,10.07
2022-10-31T19:42:11.013Z,10.06
2022-10-31T19:44:37.570Z,10.03
2022-10-31T19:47:04.097Z,9.97
2022-10-31T19:49:30.681Z,10.07
2022-10-31T19:51:57.271Z,9.99
2022-10-31T19:54:23.760Z,9.92
2022-10-31T19:56:50.230Z,9.86
2022-10-31T19:59:16.749Z,9.85
2022-10-31T20:01:43.380Z,10.05
2022-10-31T20:04:09.974Z,9.92
2022-10-31T20:06:39.336Z,9.85
2022-10-31T20:09:08.659Z,9.86
2022-10-31T20:11:37.342Z,9.92
2022-10-31T20:14:03.980Z,10.01
2022-10-31T20:16:30.613Z,10.05
2022-10-31T20:18:59.398Z,9.96
2022-10-31T20:21:28.514Z,9.89
2022-10-31T20:24:03.615Z,10.04
2022-10-31T20:26:31.489Z,10.16
2022-10-31T20:28:59.151Z,10.10
2022-10-31T20:31:28.442Z,9.97
2022-10-31T20:33:55.906Z,10.11
2022-10-31T20:36:23.327Z,10.12
2022-10-31T20:38:51.372Z,10.25
2022-10-31T20:41:18.343Z,10.21
2022-10-31T20:43:45.336Z,10.16
2022-10-31T20:46:23.992Z,10.14
2022-10-31T20:48:51.839Z,10.14
2022-10-31T20:51:21.476Z,10.08
2022-10-31T20:53:52.704Z,10.05
2022-10-31T20:56:21.637Z,10.02
2022-10-31T20:58:48.783Z,9.76
2022-10-31T21:01:18.433Z,9.80
2022-10-31T21:03:45.502Z,9.65
2022-10-31T21:06:13.019Z,9.65
2022-10-31T21:08:40.207Z,9.56
2022-10-31T21:11:12.320Z,9.59
2022-10-31T21:13:42.162Z,9.70
2022-10-31T21:16:12.229Z,9.70
2022-10-31T21:18:40.355Z,9.67
2022-10-31T21:21:16.517Z,9.75
2022-10-31T21:23:43.975Z,9.74
2022-10-31T21:26:17.325Z,9.64
2022-10-31T21:28:44.039Z,9.54
2022-10-31T21:31:13.808Z,9.59
2022-10-31T21:33:40.568Z,9.60
2022-10-31T21:36:07.671Z,9.58
2022-10-31T21:38:34.655Z,9.79
2022-10-31T21:41:09.645Z,9.87
2022-10-31T21:43:38.049Z,9.83
2022-10-31T21:46:10.837Z,9.64
2022-10-31T21:48:42.837Z,9.49
2022-10-31T21:51:15.453Z,9.51
2022-10-31T21:54:01.487Z,9.41
2022-10-31T21:56:28.280Z,9.47
2022-10-31T21:58:55.459Z,9.60
2022-10-31T22:01:24.411Z,9.63
2022-10-31T22:03:51.382Z,9.59
2022-10-31T22:06:18.224Z,9.55
2022-10-31T22:08:44.843Z,9.56
2022-10-31T22:11:14.311Z,9.75
2022-10-31T22:13:42.459Z,9.63
2022-10-31T22:16:14.853Z,9.82
2022-10-31T22:18:42.315Z,10.07
2022-10-31T22:21:11.940Z,10.12
2022-10-31T22:23:38.922Z,10.22
2022-10-31T22:26:07.891Z,10.19
2022-10-31T22:28:35.565Z,10.22
2022-10-31T22:31:06.018Z,10.05
2022-10-31T22:33:33.009Z,10.26
2022-10-31T22:36:05.510Z,10.41
2022-10-31T22:38:39.983Z,10.48
2022-10-31T22:41:08.203Z,10.43
2022-10-31T22:43:35.359Z,10.22
2022-10-31T22:46:04.814Z,10.38
2022-10-31T22:48:34.768Z,10.38
2022-10-31T22:51:12.206Z,10.50
2022-10-31T22:53:39.380Z,10.53
2022-10-31T22:56:07.690Z,10.43
2022-10-31T22:58:34.591Z,10.30
2022-10-31T23:01:07.104Z,10.07
2022-10-31T23:03:34.066Z,10.01
2022-10-31T23:06:02.343Z,10.19
2022-10-31T23:08:30.156Z,10.18
2022-10-31T23:10:56.978Z,10.22
2022-10-31T23:13:42.041Z,10.43
2022-10-31T23:16:10.316Z,10.35
2022-10-31T23:18:49.668Z,10.27
2022-10-31T23:21:37.416Z,10.29
2022-10-31T23:24:04.329Z,10.31
2022-10-31T23:26:49.220Z,10.18
2022-10-31T23:29:15.723Z,10.03
2022-10-31T23:31:42.171Z,9.98
2022-10-31T23:34:08.730Z,9.98
2022-10-31T23:36:35.218Z,10.02
2022-10-31T23:39:01.688Z,10.01
2022-10-31T23:41:28.131Z,10.10
2022-10-31T23:43:55.016Z,10.05
2022-10-31T23:46:21.514Z,9.95
2022-10-31T23:48:49.306Z,9.83
2022-10-31T23:51:15.902Z,9.70
2022-10-31T23:53:46.185Z,9.71
2022-10-31T23:56:13.385Z,9.86
2022-10-31T23:58:40.216Z,9.94
